createdAt,value
2023-05-24T00:14:13.859Z,1092.98582
2023-05-24T00:29:15.629Z,1074.57949
2023-05-24T00:44:17.428Z,1068.58104
2023-05-24T00:59:19.203Z,1067.72959
2023-05-24T01:14:21.021Z,1075.44191
2023-05-24T01:29:22.753Z,1114.80916
2023-05-24T01:44:24.513Z,1106.52404
2023-05-24T01:59:26.204Z,1127.94663
2023-05-24T02:14:27.925Z,1146.27937
2023-05-24T02:29:29.663Z,1179.57797
2023-05-24T02:44:31.470Z,1186.89156
2023-05-24T02:59:33.298Z,1192.17132
2023-05-24T03:14:35.094Z,1209.38679
2023-05-24T03:29:36.915Z,1238.44783
2023-05-24T03:44:38.659Z,1244.19735
2023-05-24T03:59:41.380Z,1227.10673
2023-05-24T04:14:43.329Z,1223.7448
2023-05-24T04:29:45.124Z,1210.47928
2023-05-24T04:44:46.858Z,1222.62824
2023-05-24T04:59:48.674Z,1218.18232
2023-05-24T05:14:50.482Z,1231.61815
2023-05-24T05:29:52.274Z,1254.68216
2023-05-24T05:44:54.048Z,1278.62646
2023-05-24T05:59:55.825Z,1326.73318
2023-05-24T06:14:57.679Z,1337.32586
2023-05-24T06:29:59.492Z,1361.78913
2023-05-24T06:45:01.335Z,1406.08656
2023-05-24T07:00:03.096Z,1439.31308
2023-05-24T07:15:04.906Z,1454.9408
2023-05-24T07:30:16.362Z,1492.20542
2023-05-24T07:45:25.769Z,1513.26983
2023-05-24T08:00:27.562Z,1561.77205
2023-05-24T08:15:29.380Z,1595.23859
2023-05-24T08:30:31.224Z,1631.163
2023-05-24T08:45:32.990Z,1648.21698
2023-05-24T09:00:34.831Z,1694.05865
2023-05-24T09:15:36.666Z,1705.92029
2023-05-24T09:30:38.491Z,1742.52325
2023-05-24T09:45:40.290Z,1750.49037
2023-05-24T10:00:42.672Z,1787.85907
2023-05-24T10:15:44.940Z,1801.07576
2023-05-24T10:30:47.165Z,1819.41665
2023-05-24T10:45:49.056Z,1862.40494
2023-05-24T11:00:51.099Z,1900.70972
2023-05-24T11:15:53.175Z,1930.83623
2023-05-24T11:30:55.053Z,1944.8481
2023-05-24T11:45:56.947Z,1930.83623
2023-05-24T12:00:58.723Z,1919.77127
2023-05-24T12:16:00.544Z,1867.59632
2023-05-24T12:31:02.511Z,1838.13493
2023-05-24T12:46:04.344Z,1807.14817
2023-05-24T13:01:06.199Z,1778.36811
2023-05-24T13:16:08.080Z,1787.85907
2023-05-24T13:31:10.025Z,1807.14817
2023-05-24T13:46:12.483Z,1808.36757
2023-05-24T14:01:14.490Z,1824.37082
2023-05-24T14:16:16.360Z,1834.36052
2023-05-24T14:31:18.314Z,1580.18917
2023-05-24T14:46:20.213Z,1546.45173
2023-05-24T15:01:22.038Z,1575.54429
2023-05-24T15:16:24.032Z,1608.64395
2023-05-24T15:31:25.917Z,1660.47137
2023-05-24T15:46:27.796Z,1696.20303
2023-05-24T16:01:29.633Z,1685.53509
2023-05-24T16:16:31.583Z,1680.25128
2023-05-24T16:31:33.416Z,1702.66886
2023-05-24T16:46:35.400Z,1715.74953
2023-05-24T17:01:37.386Z,1733.50632
2023-05-24T17:16:39.295Z,1733.50632
2023-05-24T17:31:41.188Z,1712.46056
2023-05-24T17:46:43.109Z,1766.64519
2023-05-24T18:01:45.155Z,1756.22592
2023-05-24T18:16:47.201Z,1740.26024
2023-05-24T18:31:49.219Z,1752.78009
2023-05-24T18:46:51.162Z,1690.85223
2023-05-24T19:01:53.075Z,1657.39072
2023-05-24T19:16:55.069Z,1650.2468
2023-05-24T19:31:56.970Z,1646.19214
2023-05-24T19:46:58.808Z,1634.14683
2023-05-24T20:02:00.704Z,1624.24292
2023-05-24T20:17:02.570Z,1592.39503
2023-05-24T20:32:04.503Z,1557.23466
2023-05-24T20:47:06.504Z,1516.69545
2023-05-24T21:02:08.398Z,1495.53621
2023-05-24T21:17:10.322Z,1497.2072
2023-05-24T21:32:12.149Z,1495.53623
2023-05-24T21:47:13.881Z,1505.61849
2023-05-24T22:02:15.773Z,1493.86897
2023-05-24T22:17:17.657Z,1487.23692
2023-05-24T22:32:19.448Z,1469.29876
2023-05-24T22:47:21.219Z,1451.78816
2023-05-24T23:02:23.069Z,1430.09657
2023-05-24T23:17:25.030Z,1403.14187
2023-05-24T23:32:26.865Z,1388.60155
2023-05-24T23:47:28.808Z,1368.74413
